sensor_id;sensor_type;location;lat;lon;timestamp;P1;durP1;ratioP1;P2;durP2;ratioP2
9559;SDS011;4818;50.860;4.648;2023-02-10T00:01:28;39.67;;;20.30;;
9559;SDS011;4818;50.860;4.648;2023-02-10T00:03:55;41.33;;;19.92;;
9559;SDS011;4818;50.860;4.648;2023-02-10T00:06:21;40.08;;;20.02;;
9559;SDS011;4818;50.860;4.648;2023-02-10T00:08:49;38.10;;;20.08;;
9559;SDS011;4818;50.860;4.648;2023-02-10T00:11:16;38.30;;;20.40;;
9559;SDS011;4818;50.860;4.648;2023-02-10T00:13:42;40.58;;;21.35;;
9559;SDS011;4818;50.860;4.648;2023-02-10T00:16:10;41.53;;;19.08;;
9559;SDS011;4818;50.860;4.648;2023-02-10T00:18:37;36.50;;;18.90;;
9559;SDS011;4818;50.860;4.648;2023-02-10T00:21:07;45.97;;;19.83;;
9559;SDS011;4818;50.860;4.648;2023-02-10T00:23:33;39.13;;;19.75;;
9559;SDS011;4818;50.860;4.648;2023-02-10T00:26:03;38.50;;;20.08;;
9559;SDS011;4818;50.860;4.648;2023-02-10T00:28:30;40.83;;;20.40;;
9559;SDS011;4818;50.860;4.648;2023-02-10T00:30:56;37.33;;;20.65;;
9559;SDS011;4818;50.860;4.648;2023-02-10T00:33:22;41.92;;;20.17;;
9559;SDS011;4818;50.860;4.648;2023-02-10T00:35:48;41.85;;;20.35;;
9559;SDS011;4818;50.860;4.648;2023-02-10T00:38:14;45.78;;;22.35;;
9559;SDS011;4818;50.860;4.648;2023-02-10T00:40:41;48.67;;;22.40;;
9559;SDS011;4818;50.860;4.648;2023-02-10T00:43:07;39.58;;;22.40;;
9559;SDS011;4818;50.860;4.648;2023-02-10T00:45:33;38.95;;;22.30;;
9559;SDS011;4818;50.860;4.648;2023-02-10T00:47:59;47.33;;;22.42;;
9559;SDS011;4818;50.860;4.648;2023-02-10T00:50:25;42.13;;;21.50;;
9559;SDS011;4818;50.860;4.648;2023-02-10T00:52:51;40.67;;;20.58;;
9559;SDS011;4818;50.860;4.648;2023-02-10T00:55:17;45.78;;;22.70;;
9559;SDS011;4818;50.860;4.648;2023-02-10T00:57:44;42.50;;;21.95;;
9559;SDS011;4818;50.860;4.648;2023-02-10T01:00:10;40.92;;;20.58;;
9559;SDS011;4818;50.860;4.648;2023-02-10T01:02:36;49.10;;;22.42;;
9559;SDS011;4818;50.860;4.648;2023-02-10T01:05:02;43.00;;;20.48;;
9559;SDS011;4818;50.860;4.648;2023-02-10T01:07:28;46.65;;;23.65;;
9559;SDS011;4818;50.860;4.648;2023-02-10T01:09:55;50.08;;;22.67;;
9559;SDS011;4818;50.860;4.648;2023-02-10T01:12:21;43.92;;;22.40;;
9559;SDS011;4818;50.860;4.648;2023-02-10T01:14:47;39.13;;;20.67;;
9559;SDS011;4818;50.860;4.648;2023-02-10T01:17:15;46.58;;;20.63;;
9559;SDS011;4818;50.860;4.648;2023-02-10T01:19:41;45.25;;;22.67;;
9559;SDS011;4818;50.860;4.648;2023-02-10T01:22:07;48.45;;;23.35;;
9559;SDS011;4818;50.860;4.648;2023-02-10T01:24:33;48.05;;;22.42;;
9559;SDS011;4818;50.860;4.648;2023-02-10T01:27:00;42.30;;;21.95;;
9559;SDS011;4818;50.860;4.648;2023-02-10T01:29:26;51.15;;;22.88;;
9559;SDS011;4818;50.860;4.648;2023-02-10T01:31:52;40.13;;;20.88;;
9559;SDS011;4818;50.860;4.648;2023-02-10T01:34:18;49.00;;;23.45;;
9559;SDS011;4818;50.860;4.648;2023-02-10T01:36:45;51.40;;;22.40;;
9559;SDS011;4818;50.860;4.648;2023-02-10T01:39:11;43.53;;;22.45;;
9559;SDS011;4818;50.860;4.648;2023-02-10T01:41:37;44.85;;;21.92;;
9559;SDS011;4818;50.860;4.648;2023-02-10T01:46:45;48.17;;;23.10;;
9559;SDS011;4818;50.860;4.648;2023-02-10T01:49:13;46.13;;;21.88;;
9559;SDS011;4818;50.860;4.648;2023-02-10T01:54:07;43.75;;;21.40;;
9559;SDS011;4818;50.860;4.648;2023-02-10T01:56:38;41.60;;;21.83;;
9559;SDS011;4818;50.860;4.648;2023-02-10T01:59:04;49.55;;;23.08;;
9559;SDS011;4818;50.860;4.648;2023-02-10T02:01:31;51.20;;;25.15;;
9559;SDS011;4818;50.860;4.648;2023-02-10T02:03:57;51.90;;;24.67;;
9559;SDS011;4818;50.860;4.648;2023-02-10T02:06:24;53.75;;;23.55;;
9559;SDS011;4818;50.860;4.648;2023-02-10T02:08:50;45.17;;;22.42;;
9559;SDS011;4818;50.860;4.648;2023-02-10T02:14:01;45.22;;;20.63;;
9559;SDS011;4818;50.860;4.648;2023-02-10T02:24:13;46.38;;;23.88;;
9559;SDS011;4818;50.860;4.648;2023-02-10T02:34:43;47.30;;;23.40;;
9559;SDS011;4818;50.860;4.648;2023-02-10T02:37:17;54.20;;;24.52;;
9559;SDS011;4818;50.860;4.648;2023-02-10T02:39:44;52.88;;;25.75;;
9559;SDS011;4818;50.860;4.648;2023-02-10T02:44:46;50.25;;;22.73;;
9559;SDS011;4818;50.860;4.648;2023-02-10T02:50:04;50.50;;;24.52;;
9559;SDS011;4818;50.860;4.648;2023-02-10T02:52:31;48.47;;;23.20;;
9559;SDS011;4818;50.860;4.648;2023-02-10T02:54:58;53.92;;;25.40;;
9559;SDS011;4818;50.860;4.648;2023-02-10T03:00:04;56.47;;;28.20;;
9559;SDS011;4818;50.860;4.648;2023-02-10T03:02:31;53.28;;;26.70;;
9559;SDS011;4818;50.860;4.648;2023-02-10T03:04:58;59.78;;;27.80;;
9559;SDS011;4818;50.860;4.648;2023-02-10T03:07:25;54.95;;;26.77;;
9559;SDS011;4818;50.860;4.648;2023-02-10T03:09:51;56.83;;;25.77;;
9559;SDS011;4818;50.860;4.648;2023-02-10T03:12:18;55.58;;;27.33;;
9559;SDS011;4818;50.860;4.648;2023-02-10T03:14:44;55.38;;;25.77;;
9559;SDS011;4818;50.860;4.648;2023-02-10T03:17:10;55.42;;;25.25;;
9559;SDS011;4818;50.860;4.648;2023-02-10T03:19:36;47.40;;;26.00;;
9559;SDS011;4818;50.860;4.648;2023-02-10T03:22:03;51.92;;;25.73;;
9559;SDS011;4818;50.860;4.648;2023-02-10T03:24:29;46.60;;;23.42;;
9559;SDS011;4818;50.860;4.648;2023-02-10T03:26:55;54.30;;;24.13;;
9559;SDS011;4818;50.860;4.648;2023-02-10T03:29:21;58.45;;;27.13;;
9559;SDS011;4818;50.860;4.648;2023-02-10T03:31:48;56.58;;;26.58;;
9559;SDS011;4818;50.860;4.648;2023-02-10T03:34:15;52.15;;;25.80;;
9559;SDS011;4818;50.860;4.648;2023-02-10T03:36:42;47.03;;;23.10;;
9559;SDS011;4818;50.860;4.648;2023-02-10T03:39:08;53.15;;;24.63;;
9559;SDS011;4818;50.860;4.648;2023-02-10T03:41:34;48.75;;;23.60;;
9559;SDS011;4818;50.860;4.648;2023-02-10T03:44:00;51.25;;;24.92;;
9559;SDS011;4818;50.860;4.648;2023-02-10T03:46:26;53.58;;;25.23;;
9559;SDS011;4818;50.860;4.648;2023-02-10T03:48:52;52.45;;;24.65;;
9559;SDS011;4818;50.860;4.648;2023-02-10T03:51:19;48.22;;;22.90;;
9559;SDS011;4818;50.860;4.648;2023-02-10T03:53:45;48.88;;;23.40;;
9559;SDS011;4818;50.860;4.648;2023-02-10T03:56:12;45.72;;;24.13;;
9559;SDS011;4818;50.860;4.648;2023-02-10T03:58:38;47.08;;;23.98;;
9559;SDS011;4818;50.860;4.648;2023-02-10T04:01:09;52.47;;;24.17;;
9559;SDS011;4818;50.860;4.648;2023-02-10T04:03:35;49.25;;;23.83;;
9559;SDS011;4818;50.860;4.648;2023-02-10T04:06:01;55.65;;;24.40;;
9559;SDS011;4818;50.860;4.648;2023-02-10T04:08:27;48.63;;;21.42;;
9559;SDS011;4818;50.860;4.648;2023-02-10T04:10:54;49.83;;;23.77;;
9559;SDS011;4818;50.860;4.648;2023-02-10T04:13:20;52.38;;;23.58;;
9559;SDS011;4818;50.860;4.648;2023-02-10T04:15:46;50.05;;;23.20;;
9559;SDS011;4818;50.860;4.648;2023-02-10T04:18:13;50.85;;;23.88;;
9559;SDS011;4818;50.860;4.648;2023-02-10T04:20:39;54.50;;;24.60;;
9559;SDS011;4818;50.860;4.648;2023-02-10T04:23:05;51.33;;;24.63;;
9559;SDS011;4818;50.860;4.648;2023-02-10T04:25:32;53.40;;;25.13;;
9559;SDS011;4818;50.860;4.648;2023-02-10T04:27:58;56.75;;;27.35;;
9559;SDS011;4818;50.860;4.648;2023-02-10T04:30:24;56.53;;;25.33;;
9559;SDS011;4818;50.860;4.648;2023-02-10T04:32:50;50.05;;;24.10;;
9559;SDS011;4818;50.860;4.648;2023-02-10T04:35:16;52.17;;;24.52;;
9559;SDS011;4818;50.860;4.648;2023-02-10T04:37:43;48.65;;;22.77;;
9559;SDS011;4818;50.860;4.648;2023-02-10T04:40:09;50.45;;;24.95;;
9559;SDS011;4818;50.860;4.648;2023-02-10T04:42:35;49.55;;;23.15;;
9559;SDS011;4818;50.860;4.648;2023-02-10T04:45:02;50.75;;;24.27;;
9559;SDS011;4818;50.860;4.648;2023-02-10T04:47:28;50.33;;;23.33;;
9559;SDS011;4818;50.860;4.648;2023-02-10T04:49:55;47.22;;;21.98;;
9559;SDS011;4818;50.860;4.648;2023-02-10T04:52:21;52.20;;;24.63;;
9559;SDS011;4818;50.860;4.648;2023-02-10T04:54:47;55.08;;;23.48;;
9559;SDS011;4818;50.860;4.648;2023-02-10T04:57:14;59.97;;;24.67;;
9559;SDS011;4818;50.860;4.648;2023-02-10T04:59:40;51.10;;;24.17;;
9559;SDS011;4818;50.860;4.648;2023-02-10T05:02:06;49.83;;;23.33;;
9559;SDS011;4818;50.860;4.648;2023-02-10T05:04:32;53.88;;;24.88;;
9559;SDS011;4818;50.860;4.648;2023-02-10T05:06:59;48.22;;;22.13;;
9559;SDS011;4818;50.860;4.648;2023-02-10T05:09:25;56.30;;;25.02;;
9559;SDS011;4818;50.860;4.648;2023-02-10T05:11:54;54.13;;;23.30;;
9559;SDS011;4818;50.860;4.648;2023-02-10T05:14:21;54.00;;;24.27;;
9559;SDS011;4818;50.860;4.648;2023-02-10T05:16:47;62.25;;;26.20;;
9559;SDS011;4818;50.860;4.648;2023-02-10T05:19:13;58.33;;;26.88;;
9559;SDS011;4818;50.860;4.648;2023-02-10T05:21:39;53.55;;;25.35;;
9559;SDS011;4818;50.860;4.648;2023-02-10T05:24:05;51.97;;;24.58;;
9559;SDS011;4818;50.860;4.648;2023-02-10T05:26:32;55.80;;;27.38;;
9559;SDS011;4818;50.860;4.648;2023-02-10T05:28:58;49.25;;;23.27;;
9559;SDS011;4818;50.860;4.648;2023-02-10T05:31:24;61.42;;;26.95;;
9559;SDS011;4818;50.860;4.648;2023-02-10T05:33:50;57.45;;;24.83;;
9559;SDS011;4818;50.860;4.648;2023-02-10T05:36:18;63.92;;;24.50;;
9559;SDS011;4818;50.860;4.648;2023-02-10T05:38:44;61.63;;;24.60;;
9559;SDS011;4818;50.860;4.648;2023-02-10T05:41:31;52.90;;;23.70;;
9559;SDS011;4818;50.860;4.648;2023-02-10T05:43:58;52.03;;;25.25;;
9559;SDS011;4818;50.860;4.648;2023-02-10T05:46:24;54.03;;;25.05;;
9559;SDS011;4818;50.860;4.648;2023-02-10T05:48:50;56.08;;;25.38;;
9559;SDS011;4818;50.860;4.648;2023-02-10T05:51:16;54.08;;;24.60;;
9559;SDS011;4818;50.860;4.648;2023-02-10T05:53:43;56.15;;;24.70;;
9559;SDS011;4818;50.860;4.648;2023-02-10T05:56:09;61.17;;;26.63;;
9559;SDS011;4818;50.860;4.648;2023-02-10T05:58:35;60.42;;;27.88;;
9559;SDS011;4818;50.860;4.648;2023-02-10T06:01:05;57.30;;;27.23;;
9559;SDS011;4818;50.860;4.648;2023-02-10T06:03:31;58.42;;;27.50;;
9559;SDS011;4818;50.860;4.648;2023-02-10T06:05:59;61.13;;;28.27;;
9559;SDS011;4818;50.860;4.648;2023-02-10T06:08:25;64.00;;;28.27;;
9559;SDS011;4818;50.860;4.648;2023-02-10T06:10:51;60.95;;;26.33;;
9559;SDS011;4818;50.860;4.648;2023-02-10T06:13:18;57.97;;;26.52;;
9559;SDS011;4818;50.860;4.648;2023-02-10T06:15:44;59.00;;;26.92;;
9559;SDS011;4818;50.860;4.648;2023-02-10T06:18:10;55.92;;;25.65;;
9559;SDS011;4818;50.860;4.648;2023-02-10T06:20:36;54.72;;;25.42;;
9559;SDS011;4818;50.860;4.648;2023-02-10T06:23:03;60.65;;;27.90;;
9559;SDS011;4818;50.860;4.648;2023-02-10T06:25:32;66.22;;;26.40;;
9559;SDS011;4818;50.860;4.648;2023-02-10T06:28:00;70.05;;;28.88;;
9559;SDS011;4818;50.860;4.648;2023-02-10T06:30:27;57.38;;;27.40;;
9559;SDS011;4818;50.860;4.648;2023-02-10T06:32:53;59.58;;;26.92;;
9559;SDS011;4818;50.860;4.648;2023-02-10T06:35:19;56.65;;;24.88;;
9559;SDS011;4818;50.860;4.648;2023-02-10T06:37:45;64.18;;;27.00;;
9559;SDS011;4818;50.860;4.648;2023-02-10T06:40:12;58.38;;;26.85;;
9559;SDS011;4818;50.860;4.648;2023-02-10T06:42:39;61.05;;;26.65;;
9559;SDS011;4818;50.860;4.648;2023-02-10T06:45:05;60.13;;;25.65;;
9559;SDS011;4818;50.860;4.648;2023-02-10T06:47:34;60.15;;;25.23;;
9559;SDS011;4818;50.860;4.648;2023-02-10T06:50:00;61.60;;;27.20;;
9559;SDS011;4818;50.860;4.648;2023-02-10T06:52:27;62.75;;;27.95;;
9559;SDS011;4818;50.860;4.648;2023-02-10T06:54:53;59.13;;;26.73;;
9559;SDS011;4818;50.860;4.648;2023-02-10T06:57:19;63.95;;;27.45;;
9559;SDS011;4818;50.860;4.648;2023-02-10T06:59:45;54.85;;;25.23;;
9559;SDS011;4818;50.860;4.648;2023-02-10T07:02:12;61.58;;;27.25;;
9559;SDS011;4818;50.860;4.648;2023-02-10T07:04:38;59.83;;;27.45;;
9559;SDS011;4818;50.860;4.648;2023-02-10T07:07:04;61.10;;;27.77;;
9559;SDS011;4818;50.860;4.648;2023-02-10T07:09:31;64.43;;;28.23;;
9559;SDS011;4818;50.860;4.648;2023-02-10T07:11:57;62.15;;;28.55;;
9559;SDS011;4818;50.860;4.648;2023-02-10T07:14:24;56.30;;;26.63;;
9559;SDS011;4818;50.860;4.648;2023-02-10T07:16:50;64.82;;;30.60;;
9559;SDS011;4818;50.860;4.648;2023-02-10T07:19:16;66.25;;;30.30;;
9559;SDS011;4818;50.860;4.648;2023-02-10T07:21:43;57.88;;;27.17;;
9559;SDS011;4818;50.860;4.648;2023-02-10T07:24:09;57.83;;;28.48;;
9559;SDS011;4818;50.860;4.648;2023-02-10T07:26:35;61.22;;;28.00;;
9559;SDS011;4818;50.860;4.648;2023-02-10T07:29:01;63.80;;;31.95;;
9559;SDS011;4818;50.860;4.648;2023-02-10T07:31:28;66.00;;;30.50;;
9559;SDS011;4818;50.860;4.648;2023-02-10T07:33:54;68.80;;;31.35;;
9559;SDS011;4818;50.860;4.648;2023-02-10T07:36:21;69.47;;;32.10;;
9559;SDS011;4818;50.860;4.648;2023-02-10T07:38:47;72.15;;;32.38;;
9559;SDS011;4818;50.860;4.648;2023-02-10T07:41:13;66.68;;;31.48;;
9559;SDS011;4818;50.860;4.648;2023-02-10T07:43:39;57.85;;;29.17;;
9559;SDS011;4818;50.860;4.648;2023-02-10T07:46:05;73.40;;;32.78;;
9559;SDS011;4818;50.860;4.648;2023-02-10T07:48:32;69.13;;;32.53;;
9559;SDS011;4818;50.860;4.648;2023-02-10T07:50:58;62.70;;;30.75;;
9559;SDS011;4818;50.860;4.648;2023-02-10T07:53:24;63.25;;;29.35;;
9559;SDS011;4818;50.860;4.648;2023-02-10T07:55:50;73.63;;;33.42;;
9559;SDS011;4818;50.860;4.648;2023-02-10T07:58:17;70.85;;;31.52;;
9559;SDS011;4818;50.860;4.648;2023-02-10T08:00:43;62.03;;;30.30;;
9559;SDS011;4818;50.860;4.648;2023-02-10T08:03:15;65.03;;;31.08;;
9559;SDS011;4818;50.860;4.648;2023-02-10T08:05:41;56.92;;;28.65;;
9559;SDS011;4818;50.860;4.648;2023-02-10T08:08:08;55.13;;;27.48;;
9559;SDS011;4818;50.860;4.648;2023-02-10T08:10:36;54.95;;;26.92;;
9559;SDS011;4818;50.860;4.648;2023-02-10T08:13:03;51.42;;;26.90;;
9559;SDS011;4818;50.860;4.648;2023-02-10T08:15:29;51.08;;;27.00;;
9559;SDS011;4818;50.860;4.648;2023-02-10T08:17:55;47.97;;;25.70;;
9559;SDS011;4818;50.860;4.648;2023-02-10T08:20:21;58.13;;;29.75;;
9559;SDS011;4818;50.860;4.648;2023-02-10T08:22:53;49.42;;;27.23;;
9559;SDS011;4818;50.860;4.648;2023-02-10T08:25:20;59.92;;;28.75;;
9559;SDS011;4818;50.860;4.648;2023-02-10T08:27:47;53.95;;;28.90;;
9559;SDS011;4818;50.860;4.648;2023-02-10T08:30:13;56.90;;;28.08;;
9559;SDS011;4818;50.860;4.648;2023-02-10T08:32:39;57.70;;;30.48;;
9559;SDS011;4818;50.860;4.648;2023-02-10T08:35:05;59.40;;;29.13;;
9559;SDS011;4818;50.860;4.648;2023-02-10T08:37:32;62.00;;;30.80;;
9559;SDS011;4818;50.860;4.648;2023-02-10T08:39:58;59.95;;;28.67;;
9559;SDS011;4818;50.860;4.648;2023-02-10T08:42:25;63.75;;;31.10;;
9559;SDS011;4818;50.860;4.648;2023-02-10T08:44:51;74.38;;;34.60;;
9559;SDS011;4818;50.860;4.648;2023-02-10T08:47:17;79.28;;;33.15;;
9559;SDS011;4818;50.860;4.648;2023-02-10T08:49:44;75.38;;;34.70;;
9559;SDS011;4818;50.860;4.648;2023-02-10T08:52:10;72.30;;;33.50;;
9559;SDS011;4818;50.860;4.648;2023-02-10T08:54:36;60.53;;;28.52;;
9559;SDS011;4818;50.860;4.648;2023-02-10T08:57:04;63.33;;;30.00;;
9559;SDS011;4818;50.860;4.648;2023-02-10T08:59:30;58.58;;;29.40;;
9559;SDS011;4818;50.860;4.648;2023-02-10T09:01:59;61.15;;;30.77;;
9559;SDS011;4818;50.860;4.648;2023-02-10T09:04:25;64.40;;;31.48;;
9559;SDS011;4818;50.860;4.648;2023-02-10T09:06:53;68.70;;;31.27;;
9559;SDS011;4818;50.860;4.648;2023-02-10T09:09:21;65.03;;;30.33;;
9559;SDS011;4818;50.860;4.648;2023-02-10T09:11:50;73.72;;;34.20;;
9559;SDS011;4818;50.860;4.648;2023-02-10T09:14:18;66.97;;;31.70;;
9559;SDS011;4818;50.860;4.648;2023-02-10T09:16:45;72.15;;;34.95;;
9559;SDS011;4818;50.860;4.648;2023-02-10T09:19:11;75.85;;;34.35;;
9559;SDS011;4818;50.860;4.648;2023-02-10T09:21:37;80.13;;;36.22;;
9559;SDS011;4818;50.860;4.648;2023-02-10T09:24:04;87.07;;;38.22;;
9559;SDS011;4818;50.860;4.648;2023-02-10T09:26:30;88.57;;;39.97;;
9559;SDS011;4818;50.860;4.648;2023-02-10T09:28:56;79.88;;;36.20;;
9559;SDS011;4818;50.860;4.648;2023-02-10T09:31:23;87.55;;;39.13;;
9559;SDS011;4818;50.860;4.648;2023-02-10T09:33:49;77.90;;;38.17;;
9559;SDS011;4818;50.860;4.648;2023-02-10T09:36:16;93.45;;;38.88;;
9559;SDS011;4818;50.860;4.648;2023-02-10T09:38:43;80.00;;;37.88;;
9559;SDS011;4818;50.860;4.648;2023-02-10T09:41:19;82.57;;;36.60;;
9559;SDS011;4818;50.860;4.648;2023-02-10T09:46:37;87.40;;;39.13;;
9559;SDS011;4818;50.860;4.648;2023-02-10T09:54:19;86.78;;;37.20;;
9559;SDS011;4818;50.860;4.648;2023-02-10T09:56:45;81.75;;;36.78;;
9559;SDS011;4818;50.860;4.648;2023-02-10T09:59:16;94.03;;;40.40;;
9559;SDS011;4818;50.860;4.648;2023-02-10T10:01:46;92.10;;;38.20;;
9559;SDS011;4818;50.860;4.648;2023-02-10T10:06:43;92.90;;;38.97;;
9559;SDS011;4818;50.860;4.648;2023-02-10T10:14:03;90.40;;;40.55;;
9559;SDS011;4818;50.860;4.648;2023-02-10T10:21:51;87.47;;;38.20;;
9559;SDS011;4818;50.860;4.648;2023-02-10T10:24:33;91.90;;;39.22;;
9559;SDS011;4818;50.860;4.648;2023-02-10T10:27:13;82.40;;;36.80;;
9559;SDS011;4818;50.860;4.648;2023-02-10T10:32:23;89.25;;;39.83;;
9559;SDS011;4818;50.860;4.648;2023-02-10T10:34:53;86.57;;;37.97;;
9559;SDS011;4818;50.860;4.648;2023-02-10T10:37:20;88.88;;;41.22;;
9559;SDS011;4818;50.860;4.648;2023-02-10T10:39:49;92.28;;;40.95;;
9559;SDS011;4818;50.860;4.648;2023-02-10T10:45:11;89.68;;;39.40;;
9559;SDS011;4818;50.860;4.648;2023-02-10T10:47:39;86.35;;;38.80;;
9559;SDS011;4818;50.860;4.648;2023-02-10T10:50:11;81.07;;;37.78;;
9559;SDS011;4818;50.860;4.648;2023-02-10T10:52:40;86.18;;;39.78;;
9559;SDS011;4818;50.860;4.648;2023-02-10T10:55:17;84.60;;;36.80;;
9559;SDS011;4818;50.860;4.648;2023-02-10T10:57:45;75.80;;;36.95;;
9559;SDS011;4818;50.860;4.648;2023-02-10T11:05:21;77.32;;;32.92;;
9559;SDS011;4818;50.860;4.648;2023-02-10T11:07:48;79.50;;;34.25;;
9559;SDS011;4818;50.860;4.648;2023-02-10T11:10:22;78.50;;;32.90;;
9559;SDS011;4818;50.860;4.648;2023-02-10T11:12:50;79.18;;;33.70;;
9559;SDS011;4818;50.860;4.648;2023-02-10T11:17:53;78.75;;;35.40;;
9559;SDS011;4818;50.860;4.648;2023-02-10T11:20:26;81.00;;;33.20;;
9559;SDS011;4818;50.860;4.648;2023-02-10T11:22:57;67.88;;;31.33;;
9559;SDS011;4818;50.860;4.648;2023-02-10T11:25:28;72.97;;;32.28;;
9559;SDS011;4818;50.860;4.648;2023-02-10T11:27:56;73.65;;;30.48;;
9559;SDS011;4818;50.860;4.648;2023-02-10T11:32:58;72.03;;;31.27;;
9559;SDS011;4818;50.860;4.648;2023-02-10T11:35:25;65.90;;;30.45;;
9559;SDS011;4818;50.860;4.648;2023-02-10T11:37:57;65.88;;;30.20;;
9559;SDS011;4818;50.860;4.648;2023-02-10T11:40:25;65.45;;;30.45;;
9559;SDS011;4818;50.860;4.648;2023-02-10T11:42:52;67.20;;;29.17;;
9559;SDS011;4818;50.860;4.648;2023-02-10T11:45:21;65.57;;;29.55;;
9559;SDS011;4818;50.860;4.648;2023-02-10T11:47:58;58.97;;;29.13;;
9559;SDS011;4818;50.860;4.648;2023-02-10T11:50:26;70.68;;;31.42;;
9559;SDS011;4818;50.860;4.648;2023-02-10T11:52:53;64.15;;;29.27;;
9559;SDS011;4818;50.860;4.648;2023-02-10T11:55:21;68.65;;;30.00;;
9559;SDS011;4818;50.860;4.648;2023-02-10T11:58:17;55.10;;;26.65;;
9559;SDS011;4818;50.860;4.648;2023-02-10T12:01:20;57.97;;;25.83;;
9559;SDS011;4818;50.860;4.648;2023-02-10T12:11:26;64.38;;;26.77;;
9559;SDS011;4818;50.860;4.648;2023-02-10T12:19:18;49.88;;;23.02;;
9559;SDS011;4818;50.860;4.648;2023-02-10T12:27:09;52.80;;;24.45;;
9559;SDS011;4818;50.860;4.648;2023-02-10T12:35:09;55.72;;;24.08;;
9559;SDS011;4818;50.860;4.648;2023-02-10T12:42:55;52.38;;;23.08;;
9559;SDS011;4818;50.860;4.648;2023-02-10T12:45:38;49.65;;;21.90;;
9559;SDS011;4818;50.860;4.648;2023-02-10T12:51:06;54.92;;;24.35;;
9559;SDS011;4818;50.860;4.648;2023-02-10T12:53:38;49.83;;;23.80;;
9559;SDS011;4818;50.860;4.648;2023-02-10T12:59:10;52.67;;;25.55;;
9559;SDS011;4818;50.860;4.648;2023-02-10T13:02:22;54.35;;;25.10;;
9559;SDS011;4818;50.860;4.648;2023-02-10T13:04:32;53.20;;;26.08;;
9559;SDS011;4818;50.860;4.648;2023-02-10T13:07:08;50.20;;;24.73;;
9559;SDS011;4818;50.860;4.648;2023-02-10T13:09:47;59.78;;;27.02;;
9559;SDS011;4818;50.860;4.648;2023-02-10T13:12:27;54.03;;;28.08;;
9559;SDS011;4818;50.860;4.648;2023-02-10T13:14:57;53.60;;;24.25;;
9559;SDS011;4818;50.860;4.648;2023-02-10T13:17:28;54.83;;;25.73;;
9559;SDS011;4818;50.860;4.648;2023-02-10T13:20:04;58.25;;;26.08;;
9559;SDS011;4818;50.860;4.648;2023-02-10T13:25:13;59.08;;;28.75;;
9559;SDS011;4818;50.860;4.648;2023-02-10T13:30:17;60.67;;;28.88;;
9559;SDS011;4818;50.860;4.648;2023-02-10T13:35:20;57.42;;;26.67;;
9559;SDS011;4818;50.860;4.648;2023-02-10T13:37:47;54.80;;;27.67;;
9559;SDS011;4818;50.860;4.648;2023-02-10T13:40:16;51.42;;;26.55;;
9559;SDS011;4818;50.860;4.648;2023-02-10T13:42:51;56.40;;;26.85;;
9559;SDS011;4818;50.860;4.648;2023-02-10T13:45:21;57.03;;;28.13;;
9559;SDS011;4818;50.860;4.648;2023-02-10T13:47:50;62.63;;;29.95;;
9559;SDS011;4818;50.860;4.648;2023-02-10T13:50:19;69.50;;;31.15;;
9559;SDS011;4818;50.860;4.648;2023-02-10T14:05:50;67.80;;;32.47;;
9559;SDS011;4818;50.860;4.648;2023-02-10T14:08:28;67.35;;;31.63;;
9559;SDS011;4818;50.860;4.648;2023-02-10T14:10:57;73.87;;;32.43;;
9559;SDS011;4818;50.860;4.648;2023-02-10T14:13:24;73.30;;;34.70;;
9559;SDS011;4818;50.860;4.648;2023-02-10T14:18:43;72.32;;;32.50;;
9559;SDS011;4818;50.860;4.648;2023-02-10T14:21:12;68.65;;;32.63;;
9559;SDS011;4818;50.860;4.648;2023-02-10T14:23:52;61.25;;;30.30;;
9559;SDS011;4818;50.860;4.648;2023-02-10T14:26:20;57.53;;;25.20;;
9559;SDS011;4818;50.860;4.648;2023-02-10T14:28:50;53.63;;;24.92;;
9559;SDS011;4818;50.860;4.648;2023-02-10T14:31:40;51.30;;;23.95;;
9559;SDS011;4818;50.860;4.648;2023-02-10T14:34:17;52.03;;;24.30;;
9559;SDS011;4818;50.860;4.648;2023-02-10T14:36:54;54.50;;;21.88;;
9559;SDS011;4818;50.860;4.648;2023-02-10T14:39:24;44.53;;;20.77;;
9559;SDS011;4818;50.860;4.648;2023-02-10T14:41:51;43.53;;;20.45;;
9559;SDS011;4818;50.860;4.648;2023-02-10T14:44:30;48.83;;;20.92;;
9559;SDS011;4818;50.860;4.648;2023-02-10T14:46:59;47.38;;;21.10;;
9559;SDS011;4818;50.860;4.648;2023-02-10T14:49:25;45.80;;;22.23;;
9559;SDS011;4818;50.860;4.648;2023-02-10T14:51:53;45.47;;;20.00;;
9559;SDS011;4818;50.860;4.648;2023-02-10T14:54:21;46.17;;;21.25;;
9559;SDS011;4818;50.860;4.648;2023-02-10T14:59:18;46.97;;;21.38;;
9559;SDS011;4818;50.860;4.648;2023-02-10T15:01:44;46.67;;;21.40;;
9559;SDS011;4818;50.860;4.648;2023-02-10T15:04:17;48.40;;;21.20;;
9559;SDS011;4818;50.860;4.648;2023-02-10T15:06:47;51.30;;;23.92;;
9559;SDS011;4818;50.860;4.648;2023-02-10T15:09:20;55.38;;;24.05;;
9559;SDS011;4818;50.860;4.648;2023-02-10T15:11:53;55.63;;;23.73;;
9559;SDS011;4818;50.860;4.648;2023-02-10T15:17:25;53.75;;;22.40;;
9559;SDS011;4818;50.860;4.648;2023-02-10T15:19:59;55.05;;;22.92;;
9559;SDS011;4818;50.860;4.648;2023-02-10T15:22:30;62.60;;;25.05;;
9559;SDS011;4818;50.860;4.648;2023-02-10T15:24:57;53.35;;;23.33;;
9559;SDS011;4818;50.860;4.648;2023-02-10T15:27:23;54.22;;;23.08;;
9559;SDS011;4818;50.860;4.648;2023-02-10T15:29:49;55.17;;;23.15;;
9559;SDS011;4818;50.860;4.648;2023-02-10T15:32:20;51.80;;;22.85;;
9559;SDS011;4818;50.860;4.648;2023-02-10T15:34:47;51.08;;;23.42;;
9559;SDS011;4818;50.860;4.648;2023-02-10T15:37:24;58.30;;;24.30;;
9559;SDS011;4818;50.860;4.648;2023-02-10T15:39:56;56.88;;;23.63;;
9559;SDS011;4818;50.860;4.648;2023-02-10T15:42:26;61.00;;;25.05;;
9559;SDS011;4818;50.860;4.648;2023-02-10T15:47:41;59.85;;;24.48;;
9559;SDS011;4818;50.860;4.648;2023-02-10T15:50:08;63.42;;;25.65;;
9559;SDS011;4818;50.860;4.648;2023-02-10T15:52:38;66.35;;;24.13;;
9559;SDS011;4818;50.860;4.648;2023-02-10T15:55:09;61.65;;;24.38;;
9559;SDS011;4818;50.860;4.648;2023-02-10T15:57:36;65.70;;;25.75;;
9559;SDS011;4818;50.860;4.648;2023-02-10T16:00:02;62.60;;;24.65;;
9559;SDS011;4818;50.860;4.648;2023-02-10T16:02:29;58.97;;;24.55;;
9559;SDS011;4818;50.860;4.648;2023-02-10T16:04:55;61.15;;;25.33;;
9559;SDS011;4818;50.860;4.648;2023-02-10T16:07:25;60.95;;;25.27;;
9559;SDS011;4818;50.860;4.648;2023-02-10T16:09:52;65.45;;;25.38;;
9559;SDS011;4818;50.860;4.648;2023-02-10T16:12:21;65.05;;;25.55;;
9559;SDS011;4818;50.860;4.648;2023-02-10T16:14:47;59.70;;;25.20;;
9559;SDS011;4818;50.860;4.648;2023-02-10T16:17:16;62.50;;;25.75;;
9559;SDS011;4818;50.860;4.648;2023-02-10T16:19:43;77.50;;;29.20;;
9559;SDS011;4818;50.860;4.648;2023-02-10T16:22:09;65.07;;;25.80;;
9559;SDS011;4818;50.860;4.648;2023-02-10T16:24:35;67.18;;;27.25;;
9559;SDS011;4818;50.860;4.648;2023-02-10T16:27:01;80.28;;;32.42;;
9559;SDS011;4818;50.860;4.648;2023-02-10T16:29:29;70.10;;;28.13;;
9559;SDS011;4818;50.860;4.648;2023-02-10T16:31:56;76.28;;;29.38;;
9559;SDS011;4818;50.860;4.648;2023-02-10T16:34:22;72.05;;;30.42;;
9559;SDS011;4818;50.860;4.648;2023-02-10T16:36:49;72.97;;;28.13;;
9559;SDS011;4818;50.860;4.648;2023-02-10T16:39:19;63.53;;;27.33;;
9559;SDS011;4818;50.860;4.648;2023-02-10T16:41:48;80.95;;;30.73;;
9559;SDS011;4818;50.860;4.648;2023-02-10T16:44:15;76.03;;;29.13;;
9559;SDS011;4818;50.860;4.648;2023-02-10T16:46:41;71.82;;;30.15;;
9559;SDS011;4818;50.860;4.648;2023-02-10T16:49:09;77.22;;;30.80;;
9559;SDS011;4818;50.860;4.648;2023-02-10T16:51:36;74.43;;;29.77;;
9559;SDS011;4818;50.860;4.648;2023-02-10T16:54:02;70.03;;;29.38;;
9559;SDS011;4818;50.860;4.648;2023-02-10T16:56:34;72.20;;;28.25;;
9559;SDS011;4818;50.860;4.648;2023-02-10T16:59:01;74.82;;;28.77;;
9559;SDS011;4818;50.860;4.648;2023-02-10T17:01:27;63.08;;;29.17;;
9559;SDS011;4818;50.860;4.648;2023-02-10T17:03:54;67.05;;;26.23;;
9559;SDS011;4818;50.860;4.648;2023-02-10T17:06:20;74.55;;;29.67;;
9559;SDS011;4818;50.860;4.648;2023-02-10T17:08:47;69.10;;;29.75;;